DW8751 Colwyn Bay UK current weather conditions

sailwx.info

Wind from 177 at 11 knots gusting 18

Air temperature 12.8° C
Dewpoint 12.2° C

Last reported at 2019-Jun-16 23:01 UTC.
Time now 2019-Jun-17 02:37 UTC

Location: N 53°17' W 003°44'.
View on Google Maps.

See reports from other nearby stations

  
Tides and Currents Weather Stations Pressure Air Temp Water Temp Dewpoint Dewpoint Depression Visibility Wind Speed Wind Dir Waves Ship Positions
date/time (UTC)wind fromknots sea level pressurealtimeterstation pressurevisibilityair tempwater tempwave heightnotes
2019-Jun-16 23:01 177 11 gusting 18 12.8
2019-Jun-16 22:56 197 10 gusting 15 12.8
2019-Jun-16 22:51 197 9 gusting 19 12.8
2019-Jun-16 22:46 216 11 gusting 24 12.8
2019-Jun-16 22:41 207 12 gusting 19 12.8
2019-Jun-16 22:36 199 10 gusting 18 12.8
2019-Jun-16 22:31 171 8 gusting 17 12.8
2019-Jun-16 22:26 172 10 gusting 14 12.8
2019-Jun-16 22:21 184 12 gusting 19 12.8
2019-Jun-16 22:16 155 8 gusting 18 12.8
2019-Jun-16 22:11 298 11 gusting 19 12.8
2019-Jun-16 22:06 203 12 gusting 22 12.8
2019-Jun-16 22:01 187 10 gusting 18 12.8
2019-Jun-16 21:56 172 12 gusting 21 12.8
2019-Jun-16 21:51 128 11 gusting 17 12.8
2019-Jun-16 21:46 168 12 gusting 21 12.8
2019-Jun-16 21:41 166 8 gusting 15 12.8
2019-Jun-16 21:36 165 8 gusting 15 12.8
2019-Jun-16 21:31 172 8 gusting 15 12.8
2019-Jun-16 21:26 181 11 gusting 17 12.8
2019-Jun-16 21:21 165 10 gusting 18 12.8
2019-Jun-16 21:16 202 10 gusting 20 12.8
2019-Jun-16 21:11 163 10 gusting 17 12.8
2019-Jun-16 21:06 168 11 gusting 17 12.8
2019-Jun-16 21:01 194 10 gusting 17 12.8
2019-Jun-16 20:56 173 10 gusting 19 13.3
2019-Jun-16 20:51 184 10 gusting 18 13.3
2019-Jun-16 20:46 179 13 gusting 19 13.3
2019-Jun-16 20:41 340 11 gusting 20 13.3
2019-Jun-16 20:36 178 8 gusting 19 13.3
2019-Jun-16 20:31 200 9 gusting 18 13.3
2019-Jun-16 20:26 179 10 gusting 18 13.3
2019-Jun-16 20:21 197 11 gusting 17 13.3
2019-Jun-16 20:16 224 11 gusting 19 13.3
2019-Jun-16 20:11 203 13 gusting 21 13.3
2019-Jun-16 20:06 205 12 gusting 19 13.3
2019-Jun-16 20:01 202 11 gusting 24 13.3
2019-Jun-16 19:56 203 11 gusting 18 13.3
2019-Jun-16 19:51 188 15 gusting 26 13.3
2019-Jun-16 19:46 197 14 gusting 25 13.3
2019-Jun-16 19:41 199 18 gusting 28 13.3
2019-Jun-16 19:36 196 18 gusting 26 13.3
2019-Jun-16 19:31 199 11 gusting 18 13.3
2019-Jun-16 19:26 216 13 gusting 27 13.3
2019-Jun-16 19:21 255 12 gusting 18 13.3
2019-Jun-16 19:16 204 13 gusting 21 13.3
2019-Jun-16 19:11 225 11 gusting 20 13.3
2019-Jun-16 19:06 318 13 gusting 21 13.3
2019-Jun-16 19:01 182 8 gusting 17 13.3
2019-Jun-16 18:56 234 11 gusting 18 13.3
2019-Jun-16 18:51 208 14 gusting 20 13.3
2019-Jun-16 18:46 221 14 gusting 20 13.3
2019-Jun-16 18:41 207 14 gusting 28 13.3
2019-Jun-16 18:36 222 11 gusting 20 13.3
2019-Jun-16 18:31 200 13 gusting 17 13.3
2019-Jun-16 18:26 200 13 gusting 20 13.3
2019-Jun-16 18:21 214 14 gusting 26 13.3
2019-Jun-16 18:16 209 12 gusting 19 13.3
2019-Jun-16 18:11 195 12 gusting 22 13.3
2019-Jun-16 18:06 204 12 gusting 18 13.3
2019-Jun-16 18:01 320 10 gusting 19 13.3
2019-Jun-16 17:56 200 11 gusting 19 13.3
2019-Jun-16 17:51 202 13 gusting 20 13.3
2019-Jun-16 17:46 198 15 gusting 25 13.3
2019-Jun-16 17:41 266 13 gusting 22 13.3
2019-Jun-16 17:36 203 11 gusting 18 13.9
2019-Jun-16 17:31 209 13 gusting 19 13.9
2019-Jun-16 17:26 177 14 gusting 25 13.9
2019-Jun-16 17:21 196 13 gusting 21 13.9
2019-Jun-16 17:16 200 13 gusting 20 13.9
2019-Jun-16 17:11 202 12 gusting 18 13.9
2019-Jun-16 17:06 351 10 gusting 17 13.9
2019-Jun-16 17:01 259 11 gusting 18 13.9
2019-Jun-16 16:56 164 10 gusting 17 13.9
2019-Jun-16 16:51 172 9 gusting 15 13.9
2019-Jun-16 16:46 179 11 gusting 19 13.9
2019-Jun-16 16:41 162 9 gusting 17 14.4
2019-Jun-16 16:36 204 8 gusting 14 14.4
2019-Jun-16 16:31 175 9 gusting 15 14.4
2019-Jun-16 16:26 296 8 gusting 15 14.4
2019-Jun-16 16:21 319 7 gusting 12 15.0
2019-Jun-16 16:16 212 10 gusting 17 15.0
2019-Jun-16 16:11 204 14 gusting 25 15.0
2019-Jun-16 16:06 196 11 gusting 19 15.0
2019-Jun-16 16:01 230 14 gusting 24 15.6
2019-Jun-16 15:56 189 13 gusting 22 15.6
2019-Jun-16 15:51 228 14 gusting 21 15.6
2019-Jun-16 15:46 208 10 gusting 19 15.6
2019-Jun-16 15:41 214 10 gusting 19 16.1
2019-Jun-16 15:36 202 8 gusting 18 16.1
2019-Jun-16 15:31 205 10 gusting 19 16.1
2019-Jun-16 15:26 221 9 gusting 19 16.1
2019-Jun-16 15:21 205 9 gusting 18 16.7
2019-Jun-16 15:16 216 9 gusting 19 16.7
2019-Jun-16 15:11 195 9 gusting 17 16.7
2019-Jun-16 15:06 219 11 gusting 22 16.7
2019-Jun-16 15:01 229 9 gusting 18 16.7
2019-Jun-16 14:56 193 12 gusting 31 16.7
2019-Jun-16 14:51 214 13 gusting 24 17.2
2019-Jun-16 14:46 196 14 gusting 22 17.2
2019-Jun-16 14:41 205 10 gusting 19 17.2
2019-Jun-16 14:36 200 13 gusting 21 17.2
2019-Jun-16 14:31 203 13 gusting 28 17.2
2019-Jun-16 14:26 203 12 gusting 19 17.8
2019-Jun-16 14:21 223 8 gusting 17 17.8
2019-Jun-16 14:16 220 9 gusting 18 17.2
2019-Jun-16 14:11 220 7 gusting 18 17.2
2019-Jun-16 14:06 202 12 gusting 22 17.2
2019-Jun-16 14:01 209 10 gusting 22 17.2
2019-Jun-16 13:56 203 11 gusting 19 17.2
2019-Jun-16 13:51 210 10 gusting 17 17.2
2019-Jun-16 13:46 203 12 gusting 19 17.2
2019-Jun-16 13:41 191 9 gusting 18 17.2
2019-Jun-16 13:36 222 8 gusting 18 17.2
2019-Jun-16 13:31 213 13 gusting 20 17.2
2019-Jun-16 13:26 194 10 gusting 19 16.7
2019-Jun-16 13:21 218 12 gusting 22 16.7
2019-Jun-16 13:16 211 13 gusting 21 16.7
2019-Jun-16 13:11 218 12 gusting 22 16.7
2019-Jun-16 13:06 257 11 gusting 18 16.7
2019-Jun-16 13:01 214 11 gusting 19 17.2
2019-Jun-16 12:56 191 11 gusting 21 17.8
2019-Jun-16 12:51 214 11 gusting 20 18.3
2019-Jun-16 12:46 217 11 gusting 20 17.8
2019-Jun-16 12:41 230 8 gusting 15 18.3
2019-Jun-16 12:36 216 8 gusting 15 18.3
2019-Jun-16 12:31 224 8 gusting 15 18.3
2019-Jun-16 12:26 202 10 gusting 19 18.3
2019-Jun-16 12:21 213 13 gusting 21 18.3
2019-Jun-16 12:16 213 12 gusting 19 18.3
2019-Jun-16 12:11 221 9 gusting 17 17.8
2019-Jun-16 12:06 209 8 gusting 19 17.8
2019-Jun-16 12:01 188 7 gusting 15 17.8
2019-Jun-16 11:56 214 10 gusting 19 17.8
2019-Jun-16 11:51 228 9 gusting 17 17.8
2019-Jun-16 11:46 227 8 gusting 14 17.8
2019-Jun-16 11:41 205 7 gusting 19 17.8
2019-Jun-16 11:36 178 7 gusting 14 17.8
2019-Jun-16 11:31 182 7 gusting 13 17.8
2019-Jun-16 11:26 164 7 gusting 17 17.8
2019-Jun-16 11:21 171 5 gusting 13 17.8
2019-Jun-16 11:16 204 8 gusting 14 17.2
2019-Jun-16 11:11 354 6 gusting 12 17.2
2019-Jun-16 11:06 233 5 gusting 12 16.7
2019-Jun-16 11:01 215 6 gusting 13 17.2
2019-Jun-16 10:56 185 9 gusting 15 17.2
2019-Jun-16 10:51 276 6 gusting 10 16.7
2019-Jun-16 10:46 226 4 gusting 8 16.7
2019-Jun-16 10:41 210 5 gusting 7 16.7
2019-Jun-16 10:36 150 5 gusting 8 16.7
2019-Jun-16 10:31 227 4 gusting 7 16.7
2019-Jun-16 10:26 207 5 gusting 10 16.7
2019-Jun-16 10:21 160 4 gusting 10 17.2
2019-Jun-16 10:16 170 6 gusting 10 17.2
2019-Jun-16 10:11 222 6 gusting 13 16.7
2019-Jun-16 10:06 200 5 gusting 10 16.7
2019-Jun-16 10:01 216 6 gusting 10 16.1
2019-Jun-16 09:56 170 6 gusting 11 16.1
2019-Jun-16 09:51 156 5 gusting 14 16.1
2019-Jun-16 09:46 125 6 gusting 13 16.1
2019-Jun-16 09:41 161 6 gusting 12 16.1
2019-Jun-16 09:36 166 5 gusting 10 16.1
2019-Jun-16 09:31 101 5 gusting 11 16.1
2019-Jun-16 09:26 176 5 gusting 10 15.6
2019-Jun-16 09:21 172 6 gusting 10 15.0
2019-Jun-16 09:16 128 4 gusting 10 15.0
2019-Jun-16 09:11 146 4 gusting 11 15.0
2019-Jun-16 09:06 180 7 gusting 12 15.0
2019-Jun-16 09:01 182 6 gusting 10 15.6
2019-Jun-16 08:56 163 7 gusting 13 15.0
2019-Jun-16 08:51 219 5 gusting 11 15.0
2019-Jun-16 08:46 223 6 gusting 12 15.0
2019-Jun-16 08:41 265 6 gusting 11 15.0
2019-Jun-16 08:36 194 6 gusting 17 14.4
2019-Jun-16 08:31 233 5 gusting 15 14.4
2019-Jun-16 08:26 217 6 gusting 13 14.4
2019-Jun-16 08:21 228 6 gusting 14 14.4
2019-Jun-16 08:16 005 6 gusting 10 14.4
2019-Jun-16 08:11 217 5 gusting 10 13.9
2019-Jun-16 08:06 208 6 gusting 10 13.9
2019-Jun-16 08:01 219 6 gusting 13 13.9
2019-Jun-16 07:56 226 6 gusting 13 13.9
2019-Jun-16 07:51 211 6 gusting 13 13.3
2019-Jun-16 07:46 191 8 gusting 14 13.3
2019-Jun-16 07:41 200 7 gusting 13 13.3
2019-Jun-16 07:36 217 6 gusting 13 13.3
2019-Jun-16 07:31 203 5 gusting 8 12.8
2019-Jun-16 07:26 203 6 gusting 10 12.8
2019-Jun-16 07:21 222 5 gusting 10 12.8
2019-Jun-16 07:16 182 5 gusting 8 12.2
2019-Jun-16 07:11 151 5 gusting 11 12.2
2019-Jun-16 07:06 202 5 gusting 7 11.7
2019-Jun-16 07:01 004 6 gusting 8 11.7
2019-Jun-16 06:56 183 5 gusting 6 11.1
2019-Jun-16 06:51 064 5 gusting 6 10.6
2019-Jun-16 06:46 067 4 gusting 7 10.6
2019-Jun-16 06:41 174 6 gusting 10 10.6
2019-Jun-16 06:36 025 5 gusting 7 10.6
2019-Jun-16 06:31 199 4 gusting 7 10.6
2019-Jun-16 06:26 193 6 gusting 10 10.6
2019-Jun-16 06:21 357 6 gusting 10 10.6
2019-Jun-16 06:16 224 4 gusting 8 10.6
2019-Jun-16 06:11 343 5 gusting 10 10.6
2019-Jun-16 06:06 202 4 gusting 6 10.6
2019-Jun-16 06:01 251 5 gusting 7 10.6
2019-Jun-16 05:56 190 5 gusting 7 10.6
2019-Jun-16 05:51 202 4 gusting 7 10.6
2019-Jun-16 05:46 203 3 gusting 6 10.6
2019-Jun-16 05:41 208 4 gusting 10 10.6
2019-Jun-16 05:36 254 6 gusting 8 10.6
2019-Jun-16 05:31 326 4 gusting 6 10.6
2019-Jun-16 05:26 217 6 gusting 10 10.6
2019-Jun-16 05:21 203 6 gusting 10 10.6
2019-Jun-16 05:16 217 6 gusting 10 10.0
2019-Jun-16 05:11 201 6 gusting 8 10.0
2019-Jun-16 05:06 205 7 gusting 10 10.0
2019-Jun-16 05:01 210 6 gusting 12 10.0
2019-Jun-16 04:56 235 7 gusting 12 10.0
2019-Jun-16 04:51 207 8 gusting 13 10.0
2019-Jun-16 04:46 351 8 gusting 12 10.0
2019-Jun-16 04:41 198 7 gusting 10 10.6
2019-Jun-16 04:36 211 7 gusting 11 10.0
2019-Jun-16 04:31 325 9 gusting 13 10.0
2019-Jun-16 04:26 206 7 gusting 13 10.0
2019-Jun-16 04:21 269 8 gusting 13 10.0
2019-Jun-16 04:16 277 7 gusting 11 9.4
2019-Jun-16 04:11 242 6 gusting 10 9.4
2019-Jun-16 04:06 218 6 gusting 10 9.4
2019-Jun-16 04:01 232 7 gusting 10 9.4
2019-Jun-16 03:56 231 7 gusting 11 9.4
2019-Jun-16 03:51 224 5 gusting 10 9.4
2019-Jun-16 03:46 209 6 gusting 11 9.4
2019-Jun-16 03:41 281 5 gusting 10 9.4
2019-Jun-16 03:36 209 5 gusting 10 9.4
2019-Jun-16 03:31 210 6 gusting 10 9.4
2019-Jun-16 03:26 184 6 gusting 10 9.4
2019-Jun-16 03:21 319 6 gusting 10 9.4
2019-Jun-16 03:16 222 7 gusting 10 9.4
2019-Jun-16 03:11 216 7 gusting 11 9.4
2019-Jun-16 03:06 317 6 gusting 11 9.4
2019-Jun-16 03:01 222 5 gusting 7 9.4
2019-Jun-16 02:56 225 5 gusting 6 9.4
2019-Jun-16 02:51 197 4 gusting 6 9.4
2019-Jun-16 02:46 209 5 gusting 7 9.4
2019-Jun-16 02:41 220 5 gusting 7 8.9
2019-Jun-16 02:36 197 4 gusting 6 8.9
2019-Jun-16 02:31 243 4 gusting 6 9.4
2019-Jun-16 02:26 195 4 gusting 6 9.4
2019-Jun-16 02:21 199 4 gusting 6 9.4
2019-Jun-16 02:16 200 4 gusting 6 9.4
2019-Jun-16 02:11 202 5 gusting 8 9.4
2019-Jun-16 02:06 202 4 gusting 7 9.4
2019-Jun-16 02:01 199 5 gusting 6 9.4
2019-Jun-16 01:56 192 3 gusting 7 9.4
2019-Jun-16 01:51 210 5 gusting 6 9.4
2019-Jun-16 01:46 200 5 gusting 6 9.4
2019-Jun-16 01:41 321 6 gusting 10 10.0
2019-Jun-16 01:36 209 6 gusting 10 10.0
2019-Jun-16 01:31 211 6 gusting 10 10.0
2019-Jun-16 01:26 196 5 gusting 7 10.0
2019-Jun-16 01:21 356 5 gusting 6 10.0
2019-Jun-16 01:16 202 3 gusting 6 10.0
2019-Jun-16 01:11 247 2 gusting 4 10.0
2019-Jun-16 01:06 202 4 gusting 7 10.0
2019-Jun-16 01:01 199 4 gusting 6 10.0
2019-Jun-16 00:56 256 4 gusting 6 10.0
2019-Jun-16 00:51 10.0
2019-Jun-16 00:46 10.0
2019-Jun-16 00:41 207 1 gusting 6 10.0
2019-Jun-16 00:36 234 2 gusting 4 10.0
2019-Jun-16 00:31 235 2 gusting 6 10.0
2019-Jun-16 00:26 217 2 gusting 4 10.0
2019-Jun-16 00:21 217 3 gusting 6 10.6
2019-Jun-16 00:16 231 2 gusting 5 10.6
2019-Jun-16 00:11 199 2 gusting 5 10.6
2019-Jun-16 00:06 206 1 gusting 4 10.6
2019-Jun-16 00:01 207 4 gusting 6 10.6
2019-Jun-15 23:56 225 2 gusting 5 10.6
2019-Jun-15 23:51 225 2 gusting 6 10.6
2019-Jun-15 23:46 213 5 gusting 7 10.6
2019-Jun-15 23:41 208 6 gusting 10 10.6
2019-Jun-15 23:36 202 5 gusting 10 10.6
2019-Jun-15 23:31 198 5 gusting 7 10.6
2019-Jun-15 23:26 334 5 gusting 10 10.6
2019-Jun-15 23:21 219 5 gusting 8 10.6
2019-Jun-15 23:16 199 5 gusting 8 10.6
2019-Jun-15 23:11 219 4 gusting 10 10.6
2019-Jun-15 23:06 224 6 gusting 8 10.6
2019-Jun-15 23:01 204 5 gusting 10 10.6
2019-Jun-15 22:56 203 7 gusting 11 10.6
2019-Jun-15 22:51 204 6 gusting 12 10.0
2019-Jun-15 22:46 198 7 gusting 10 10.0
2019-Jun-15 22:41 235 8 gusting 13 10.0
2019-Jun-15 22:36 225 7 gusting 13 10.0
2019-Jun-15 22:31 346 8 gusting 12 10.0
2019-Jun-15 22:26 287 6 gusting 10 10.0
2019-Jun-15 22:21 226 5 gusting 10 10.0
2019-Jun-15 22:16 211 5 gusting 7 10.0
2019-Jun-15 22:11 215 4 gusting 6 10.0
2019-Jun-15 22:06 211 3 gusting 6 10.0
2019-Jun-15 22:01 214 3 gusting 5 10.0
2019-Jun-15 21:56 243 3 gusting 5 10.0
2019-Jun-15 21:51 243 2 gusting 5 10.0
2019-Jun-15 21:46 229 2 gusting 5 10.0
2019-Jun-15 21:36 236 0 gusting 5 10.0
2019-Jun-15 21:31 238 1 gusting 2 10.0
2019-Jun-15 21:26 238 4 gusting 5 10.0
2019-Jun-15 21:21 250 1 gusting 5 10.0
2019-Jun-15 21:16 225 2 gusting 6 10.0
2019-Jun-15 21:11 197 3 gusting 7 10.0
2019-Jun-15 21:06 200 3 gusting 6 10.6
2019-Jun-15 21:01 199 2 gusting 6 10.6
2019-Jun-15 20:56 221 1 gusting 6 10.6
2019-Jun-15 20:51 206 4 gusting 8 10.6
2019-Jun-15 20:46 223 5 gusting 11 10.6
2019-Jun-15 20:41 346 5 gusting 8 10.6
2019-Jun-15 20:36 213 4 gusting 10 11.1
2019-Jun-15 20:31 208 6 gusting 11 11.1
2019-Jun-15 20:26 208 4 gusting 8 11.1
2019-Jun-15 20:21 208 4 gusting 10 11.1
2019-Jun-15 20:16 225 2 gusting 6 11.7
2019-Jun-15 20:11 224 5 gusting 11 11.7
2019-Jun-15 20:06 343 4 gusting 10 11.7
2019-Jun-15 20:01 226 5 gusting 11 11.7
2019-Jun-15 19:56 210 7 gusting 12 12.2
2019-Jun-15 19:51 328 2 gusting 6 12.2
2019-Jun-15 19:46 351 4 gusting 7 12.2
2019-Jun-15 19:41 226 4 gusting 7 12.2
2019-Jun-15 19:36 211 5 gusting 12 12.2
2019-Jun-15 19:31 357 5 gusting 10 12.8
2019-Jun-15 19:26 244 7 gusting 12 12.8
2019-Jun-15 19:21 215 6 gusting 10 13.3
2019-Jun-15 19:16 205 5 gusting 12 13.3
2019-Jun-15 19:11 207 6 gusting 13 13.3
2019-Jun-15 19:06 355 5 gusting 10 13.9
2019-Jun-15 19:01 214 7 gusting 13 13.9
2019-Jun-15 18:56 227 7 gusting 14 13.9
2019-Jun-15 18:51 206 9 gusting 14 14.4
2019-Jun-15 18:46 238 7 gusting 13 14.4
2019-Jun-15 18:41 200 6 gusting 11 14.4
2019-Jun-15 18:36 214 6 gusting 10 14.4
2019-Jun-15 18:31 226 4 gusting 12 14.4
2019-Jun-15 18:26 343 6 gusting 11 14.4
2019-Jun-15 18:21 200 6 gusting 10 15.0
2019-Jun-15 18:16 335 7 gusting 13 15.0
2019-Jun-15 18:11 174 6 gusting 10 15.0
2019-Jun-15 18:06 210 7 gusting 11 15.0
2019-Jun-15 18:01 206 6 gusting 10 15.0
2019-Jun-15 17:56 255 6 gusting 12 15.6
2019-Jun-15 17:51 192 10 gusting 13 15.6
2019-Jun-15 17:46 240 8 gusting 14 16.1
2019-Jun-15 17:41 182 7 gusting 13 16.1
2019-Jun-15 17:36 219 6 gusting 11 16.1
2019-Jun-15 17:31 232 4 gusting 10 16.1
2019-Jun-15 17:26 286 7 gusting 11 16.1
2019-Jun-15 17:21 175 6 gusting 12 16.1
2019-Jun-15 17:16 228 4 gusting 10 16.1
2019-Jun-15 17:11 212 6 gusting 14 16.1
2019-Jun-15 17:06 181 6 gusting 11 16.1
2019-Jun-15 17:01 217 7 gusting 15 16.1
2019-Jun-15 16:56 203 8 gusting 14 16.1
2019-Jun-15 16:51 198 10 gusting 15 16.1
2019-Jun-15 16:46 213 7 gusting 12 16.1
2019-Jun-15 16:41 209 6 gusting 8 15.6
2019-Jun-15 16:36 208 5 gusting 11 16.1
2019-Jun-15 16:31 024 6 gusting 13 16.1
2019-Jun-15 16:26 247 7 gusting 13 15.6
2019-Jun-15 16:21 209 8 gusting 13 15.6
2019-Jun-15 16:16 206 6 gusting 14 15.6
2019-Jun-15 16:11 207 7 gusting 12 15.6
2019-Jun-15 16:06 226 5 gusting 12 15.0
2019-Jun-15 16:01 229 6 gusting 12 15.0
2019-Jun-15 15:56 197 4 gusting 12 15.0
2019-Jun-15 15:51 210 6 gusting 11 15.0
2019-Jun-15 15:46 191 6 gusting 12 15.0
2019-Jun-15 15:41 203 6 gusting 11 15.0
2019-Jun-15 15:36 205 6 gusting 12 15.0
2019-Jun-15 15:31 199 8 gusting 13 15.0
2019-Jun-15 15:26 218 6 gusting 12 15.6
2019-Jun-15 15:21 206 7 gusting 15 15.6
2019-Jun-15 15:16 233 6 gusting 13 15.6
2019-Jun-15 15:11 228 6 gusting 11 15.6
2019-Jun-15 15:06 211 7 gusting 14 16.1
2019-Jun-15 15:01 263 8 gusting 14 16.1
2019-Jun-15 14:56 217 8 gusting 17 16.1
2019-Jun-15 14:51 170 8 gusting 17 16.1
2019-Jun-15 14:46 213 7 gusting 13 16.1
2019-Jun-15 14:41 196 8 gusting 13 16.1
2019-Jun-15 14:36 193 6 gusting 12 16.1
2019-Jun-15 14:31 212 5 gusting 13 15.6
2019-Jun-15 14:26 184 8 gusting 15 15.6
2019-Jun-15 14:21 189 7 gusting 13 15.6
2019-Jun-15 14:16 198 6 gusting 13 15.6
2019-Jun-15 14:11 189 7 gusting 13 15.6
2019-Jun-15 14:06 193 8 gusting 14 16.1
2019-Jun-15 14:01 147 7 gusting 13 16.1
2019-Jun-15 13:56 207 5 gusting 13 16.1
2019-Jun-15 13:51 190 6 gusting 12 16.7
2019-Jun-15 13:46 261 7 gusting 13 16.7
2019-Jun-15 13:41 176 6 gusting 13 16.7
2019-Jun-15 13:36 173 5 gusting 13 16.7
2019-Jun-15 13:31 210 7 gusting 13 16.7
2019-Jun-15 13:26 215 5 gusting 12 16.7
2019-Jun-15 13:21 200 7 gusting 13 16.7
2019-Jun-15 13:16 150 5 gusting 13 16.7
2019-Jun-15 13:11 171 7 gusting 14 16.7
2019-Jun-15 13:06 214 6 gusting 10 16.7
2019-Jun-15 13:01 197 6 gusting 13 16.7
2019-Jun-15 12:56 177 6 gusting 13 16.7
2019-Jun-15 12:51 179 7 gusting 17 17.2
2019-Jun-15 12:46 237 5 gusting 14 17.2
2019-Jun-15 12:41 204 5 gusting 8 17.2
2019-Jun-15 12:36 221 5 gusting 11 17.2
2019-Jun-15 12:31 204 5 gusting 8 16.7
2019-Jun-15 12:26 174 6 gusting 11 16.7
2019-Jun-15 12:21 227 6 gusting 12 16.7
2019-Jun-15 12:16 226 5 gusting 8 16.7
2019-Jun-15 12:11 220 6 gusting 13 16.7
2019-Jun-15 12:06 175 9 gusting 14 16.7
2019-Jun-15 12:01 182 6 gusting 12 16.1
2019-Jun-15 11:56 178 6 gusting 11 16.7
2019-Jun-15 11:51 178 6 gusting 12 16.7
2019-Jun-15 11:46 205 6 gusting 10 16.7
2019-Jun-15 11:41 196 7 gusting 13 17.2
2019-Jun-15 11:36 216 4 gusting 8 17.2
2019-Jun-15 11:31 186 6 gusting 10 16.7
2019-Jun-15 11:26 235 5 gusting 8 16.1
2019-Jun-15 11:21 228 5 gusting 8 15.6
2019-Jun-15 11:16 181 6 gusting 11 15.6
2019-Jun-15 11:11 228 6 gusting 13 15.6
2019-Jun-15 11:06 233 6 gusting 12 16.1
2019-Jun-15 11:01 230 5 gusting 11 16.1
2019-Jun-15 10:56 229 4 gusting 8 16.1
2019-Jun-15 10:51 217 7 gusting 17 16.1
2019-Jun-15 10:46 175 8 gusting 13 16.1
2019-Jun-15 10:41 180 8 gusting 15 15.6
2019-Jun-15 10:36 230 5 gusting 13 15.6
2019-Jun-15 10:31 213 7 gusting 14 15.6
2019-Jun-15 10:26 198 8 gusting 15 15.6
2019-Jun-15 10:21 214 8 gusting 14 15.6
2019-Jun-15 10:16 211 7 gusting 15 15.6
2019-Jun-15 10:11 219 8 gusting 14 15.6
2019-Jun-15 10:06 218 9 gusting 17 15.0
2019-Jun-15 10:01 207 10 gusting 19 15.0
2019-Jun-15 09:56 209 7 gusting 14 15.0
2019-Jun-15 09:51 212 10 gusting 13 14.4
2019-Jun-15 09:46 199 10 gusting 19 14.4
2019-Jun-15 09:41 220 11 gusting 19 14.4
2019-Jun-15 09:36 211 10 gusting 19 13.9
2019-Jun-15 09:31 198 12 gusting 18 13.3
2019-Jun-15 09:26 200 12 gusting 19 13.3
2019-Jun-15 09:21 241 8 gusting 15 13.3
2019-Jun-15 09:16 200 9 gusting 17 13.3
2019-Jun-15 09:11 211 11 gusting 19 13.3
2019-Jun-15 09:06 215 10 gusting 19 13.3
2019-Jun-15 09:01 225 10 gusting 19 13.9
2019-Jun-15 08:56 190 10 gusting 19 13.9
2019-Jun-15 08:51 169 7 gusting 18 14.4
2019-Jun-15 08:46 198 9 gusting 15 14.4
2019-Jun-15 08:41 219 8 gusting 14 13.9
2019-Jun-15 08:36 205 11 gusting 17 13.9
2019-Jun-15 08:31 216 11 gusting 17 13.9
2019-Jun-15 08:26 193 10 gusting 19 13.9
2019-Jun-15 08:21 209 10 gusting 18 13.3
2019-Jun-15 08:16 211 8 gusting 18 13.3
2019-Jun-15 08:11 181 7 gusting 14 13.3
2019-Jun-15 08:06 183 6 gusting 17 12.8
2019-Jun-15 08:01 100 9 gusting 17 12.2
2019-Jun-15 07:56 239 7 gusting 13 12.2
2019-Jun-15 07:51 108 8 gusting 17 12.2
2019-Jun-15 07:46 170 10 gusting 17 12.2
2019-Jun-15 07:41 236 7 gusting 19 12.2
2019-Jun-15 07:36 166 6 gusting 17 12.2
2019-Jun-15 07:31 143 10 gusting 18 12.8
2019-Jun-15 07:26 161 9 gusting 18 12.8
2019-Jun-15 07:21 147 9 gusting 13 12.8
2019-Jun-15 07:16 156 7 gusting 14 12.2
2019-Jun-15 07:11 167 6 gusting 19 12.2
2019-Jun-15 07:06 158 8 gusting 17 11.7
2019-Jun-15 07:01 161 9 gusting 19 11.7
2019-Jun-15 06:56 136 10 gusting 14 11.7
2019-Jun-15 06:51 142 10 gusting 14 11.7
2019-Jun-15 06:46 149 8 gusting 19 11.7
2019-Jun-15 06:41 136 10 gusting 19 11.1
2019-Jun-15 06:36 145 11 gusting 17 11.1
2019-Jun-15 06:31 147 10 gusting 18 11.7
2019-Jun-15 06:26 144 10 gusting 21 11.1
2019-Jun-15 06:21 157 8 gusting 14 11.1
2019-Jun-15 06:16 143 8 gusting 19 11.1
2019-Jun-15 06:11 156 9 gusting 19 11.1
2019-Jun-15 06:06 155 11 gusting 18 11.1
2019-Jun-15 06:01 144 11 gusting 20 11.1
2019-Jun-15 05:56 141 8 gusting 17 11.1
2019-Jun-15 05:51 147 9 gusting 17 11.1
2019-Jun-15 05:46 153 10 gusting 15 11.1
2019-Jun-15 05:41 144 10 gusting 19 11.1
2019-Jun-15 05:36 143 10 gusting 18 11.1
2019-Jun-15 05:31 152 10 gusting 18 11.1
2019-Jun-15 05:26 147 10 gusting 15 11.1
2019-Jun-15 05:21 162 9 gusting 17 10.6
2019-Jun-15 05:16 148 7 gusting 13 10.6
2019-Jun-15 05:11 154 9 gusting 17 10.6
2019-Jun-15 05:06 142 8 gusting 13 10.6
2019-Jun-15 05:01 144 6 gusting 14 10.6
2019-Jun-15 04:56 152 8 gusting 12 10.6
2019-Jun-15 04:51 144 7 gusting 13 10.6
2019-Jun-15 04:46 149 6 gusting 13 10.6
2019-Jun-15 04:41 152 7 gusting 11 10.6
2019-Jun-15 04:36 144 6 gusting 11 10.6
2019-Jun-15 04:31 147 6 gusting 13 10.6
2019-Jun-15 04:26 139 6 gusting 12 10.6
2019-Jun-15 04:21 144 7 gusting 13 10.6
2019-Jun-15 04:16 151 5 gusting 10 10.6
2019-Jun-15 04:11 138 4 gusting 11 10.6
2019-Jun-15 04:06 151 6 gusting 13 10.6
2019-Jun-15 04:01 151 6 gusting 13 10.6
2019-Jun-15 03:56 150 6 gusting 12 10.6
2019-Jun-15 03:51 140 7 gusting 13 10.6
2019-Jun-15 03:46 150 7 gusting 13 10.6
2019-Jun-15 03:41 133 6 gusting 14 10.6
2019-Jun-15 03:36 147 6 gusting 13 10.6
2019-Jun-15 03:31 146 6 gusting 13 10.6
2019-Jun-15 03:26 144 7 gusting 12 10.6
2019-Jun-15 03:21 139 6 gusting 10 10.6
2019-Jun-15 03:16 146 6 gusting 10 10.6
2019-Jun-15 03:11 119 6 gusting 11 10.6
2019-Jun-15 03:06 142 7 gusting 14 10.6
2019-Jun-15 03:01 147 7 gusting 12 10.6
2019-Jun-15 02:56 141 7 gusting 13 10.6
2019-Jun-15 02:51 152 7 gusting 12 10.6
2019-Jun-15 02:46 154 8 gusting 14 10.6
2019-Jun-15 02:41 149 7 gusting 13 10.6
2019-Jun-15 02:36 122 7 gusting 13 10.6
2019-Jun-15 02:31 148 7 gusting 12 10.6
2019-Jun-15 02:26 145 7 gusting 11 10.6
2019-Jun-15 02:21 151 7 gusting 11 10.6
2019-Jun-15 02:16 148 6 gusting 10 10.6
2019-Jun-15 02:11 151 5 gusting 12 10.6
2019-Jun-15 02:06 152 6 gusting 12 10.6
2019-Jun-15 02:01 140 5 gusting 10 10.6